createdAt,value
2016-09-03T00:02:03.487Z,18.9
2016-09-03T00:07:03.556Z,18.7
2016-09-03T00:12:03.585Z,18.5
2016-09-03T00:17:03.455Z,18.3
2016-09-03T00:22:03.479Z,18.3
2016-09-03T00:27:03.170Z,18.3
2016-09-03T00:32:03.079Z,18.3
2016-09-03T00:37:03.833Z,18.3
2016-09-03T00:42:03.625Z,18.3
2016-09-03T00:47:03.416Z,18.3
2016-09-03T00:52:03.450Z,18.3
2016-09-03T00:57:03.372Z,18.3
2016-09-03T01:02:03.474Z,18.3
2016-09-03T01:07:03.323Z,18.2
2016-09-03T01:12:03.867Z,18.2
2016-09-03T01:17:03.861Z,18.1
2016-09-03T01:22:03.112Z,18.0
2016-09-03T01:27:03.914Z,18.0
2016-09-03T01:32:03.806Z,18.0
2016-09-03T01:37:02.951Z,17.9
2016-09-03T01:42:02.944Z,17.8
2016-09-03T01:47:03.941Z,17.7
2016-09-03T01:52:03.621Z,17.8
2016-09-03T01:57:03.705Z,17.8
2016-09-03T02:02:03.550Z,17.7
2016-09-03T02:07:03.690Z,17.6
2016-09-03T02:12:03.635Z,17.7
2016-09-03T02:17:03.793Z,17.6
2016-09-03T02:22:03.709Z,17.4
2016-09-03T02:27:03.612Z,17.3
2016-09-03T02:32:03.596Z,17.3
2016-09-03T02:37:03.406Z,17.3
2016-09-03T02:42:03.673Z,17.3
2016-09-03T02:47:03.121Z,17.1
2016-09-03T02:52:03.384Z,17.1
2016-09-03T02:57:03.575Z,17.1
2016-09-03T03:02:02.772Z,17.1
2016-09-03T03:07:03.284Z,17.2
2016-09-03T03:12:03.623Z,17.1
2016-09-03T03:17:03.449Z,17.2
2016-09-03T03:22:03.571Z,17.2
2016-09-03T03:27:03.724Z,17.1
2016-09-03T03:32:03.101Z,17.1
2016-09-03T03:37:03.357Z,17.0
2016-09-03T03:42:03.527Z,17.0
2016-09-03T03:47:03.865Z,16.8
2016-09-03T03:52:03.040Z,16.7
2016-09-03T03:57:03.367Z,16.6
2016-09-03T04:02:03.738Z,16.6
2016-09-03T04:07:03.222Z,16.3
2016-09-03T04:12:03.097Z,16.3
2016-09-03T04:17:14.086Z,16.4
2016-09-03T04:22:03.162Z,16.4
2016-09-03T04:32:23.167Z,16.6
2016-09-03T04:37:03.202Z,16.6
2016-09-03T04:42:03.616Z,16.6
2016-09-03T04:47:16.928Z,16.6
2016-09-03T04:52:03.282Z,16.6
2016-09-03T04:57:03.420Z,16.7
2016-09-03T05:02:17.237Z,16.7
2016-09-03T05:07:03.118Z,16.6
2016-09-03T05:12:03.672Z,16.7
2016-09-03T05:17:17.386Z,16.7
2016-09-03T05:22:02.890Z,16.8
2016-09-03T05:27:03.641Z,16.7
2016-09-03T05:32:17.315Z,16.9
2016-09-03T05:37:03.333Z,17.2
2016-09-03T05:42:02.789Z,17.1
2016-09-03T05:47:17.354Z,17.5
2016-09-03T05:52:03.283Z,17.7
2016-09-03T05:57:02.950Z,17.7
2016-09-03T06:02:16.798Z,18.0
2016-09-03T06:07:02.937Z,18.1
2016-09-03T06:12:03.406Z,18.3
2016-09-03T06:17:21.695Z,18.4
2016-09-03T06:22:03.232Z,18.5
2016-09-03T06:27:03.412Z,18.8
2016-09-03T06:32:17.676Z,19.0
2016-09-03T06:37:03.869Z,19.0
2016-09-03T06:42:03.527Z,19.1
2016-09-03T06:47:16.838Z,19.1
2016-09-03T06:52:03.768Z,19.2
2016-09-03T06:57:03.337Z,19.5
2016-09-03T07:02:16.865Z,19.6
2016-09-03T07:07:03.769Z,19.7
2016-09-03T07:12:03.658Z,20.0
2016-09-03T07:17:17.447Z,20.0
2016-09-03T07:22:03.387Z,20.3
2016-09-03T07:27:03.332Z,20.5
2016-09-03T07:32:16.892Z,21.0
2016-09-03T07:37:03.006Z,21.4
2016-09-03T07:42:03.602Z,21.4
2016-09-03T07:47:16.670Z,21.9
2016-09-03T07:52:02.926Z,22.5
2016-09-03T07:57:03.463Z,22.9
2016-09-03T08:02:17.734Z,23.4
2016-09-03T08:07:03.125Z,24.2
2016-09-03T08:12:03.104Z,24.5
2016-09-03T08:17:22.758Z,24.4
2016-09-03T08:22:03.090Z,24.8
2016-09-03T08:27:03.483Z,24.8
2016-09-03T08:32:17.296Z,24.9
2016-09-03T08:37:03.461Z,25.2
2016-09-03T08:42:03.198Z,25.6
2016-09-03T08:47:16.905Z,25.6
2016-09-03T08:52:03.693Z,25.8
2016-09-03T08:57:03.570Z,26.5
2016-09-03T09:02:16.862Z,27.5
2016-09-03T09:07:02.975Z,27.8
2016-09-03T09:12:03.723Z,27.8
2016-09-03T09:17:17.381Z,29.1
2016-09-03T09:22:03.647Z,30.0
2016-09-03T09:27:03.125Z,30.0
2016-09-03T09:32:17.188Z,30.9
2016-09-03T09:37:02.895Z,31.3
2016-09-03T09:42:03.695Z,31.3
2016-09-03T09:47:17.130Z,32.1
2016-09-03T09:52:03.749Z,32.3
2016-09-03T09:57:02.886Z,32.3
2016-09-03T10:02:17.171Z,32.2
2016-09-03T10:07:03.853Z,32.2
2016-09-03T10:12:03.656Z,32.0
2016-09-03T10:17:17.352Z,31.7
2016-09-03T10:22:03.028Z,31.5
2016-09-03T10:27:03.616Z,31.5
2016-09-03T10:32:16.882Z,31.3
2016-09-03T10:37:03.020Z,31.2
2016-09-03T10:42:03.475Z,31.6
2016-09-03T10:47:18.104Z,31.9
2016-09-03T10:52:02.883Z,32.1
2016-09-03T10:57:02.908Z,31.8
2016-09-03T11:02:17.312Z,31.7
2016-09-03T11:07:03.551Z,31.9
2016-09-03T11:12:03.347Z,32.2
2016-09-03T11:17:17.470Z,32.2
2016-09-03T11:22:03.537Z,32.5
2016-09-03T11:27:03.541Z,33.1
2016-09-03T11:32:18.055Z,33.4
2016-09-03T11:37:03.630Z,34.1
2016-09-03T11:42:03.755Z,34.1
2016-09-03T11:47:17.387Z,33.9
2016-09-03T11:52:03.056Z,33.9
2016-09-03T11:57:02.993Z,34.6
2016-09-03T12:02:17.430Z,34.6
2016-09-03T12:07:03.827Z,34.5
2016-09-03T12:12:03.022Z,34.5
2016-09-03T12:17:17.614Z,34.6
2016-09-03T12:22:03.544Z,34.4
2016-09-03T12:27:03.702Z,34.7
2016-09-03T12:32:16.610Z,35.1
2016-09-03T12:37:03.580Z,35.1
2016-09-03T12:42:03.414Z,35.2
2016-09-03T12:47:16.941Z,35.2
2016-09-03T12:52:02.878Z,35.1
2016-09-03T12:57:03.577Z,34.6
2016-09-03T13:02:16.975Z,34.5
2016-09-03T13:07:03.293Z,34.3
2016-09-03T13:12:03.303Z,34.2
2016-09-03T13:17:16.923Z,34.4
2016-09-03T13:22:03.381Z,34.3
2016-09-03T13:27:03.771Z,34.3
2016-09-03T13:32:17.399Z,34.3
2016-09-03T13:37:03.526Z,34.5
2016-09-03T13:42:03.727Z,34.5
2016-09-03T13:47:19.193Z,34.7
2016-09-03T13:52:03.628Z,34.6
2016-09-03T13:57:03.304Z,33.1
2016-09-03T20:02:03.241Z,23.2
2016-09-03T20:07:03.832Z,23.1
2016-09-03T20:12:03.642Z,23.1
2016-09-03T20:17:03.605Z,22.9
2016-09-03T20:22:03.357Z,22.6
2016-09-03T20:27:03.568Z,22.2
2016-09-03T20:32:03.163Z,22.1
2016-09-03T20:37:03.015Z,22.0
2016-09-03T20:42:03.182Z,21.8
2016-09-03T20:47:03.156Z,21.6
2016-09-03T20:52:03.463Z,21.6
2016-09-03T20:57:03.180Z,21.6
2016-09-03T21:02:03.117Z,21.5
2016-09-03T21:07:03.669Z,21.4
2016-09-03T21:12:03.086Z,21.1
2016-09-03T21:17:03.750Z,21.0
2016-09-03T21:22:03.632Z,20.6
2016-09-03T21:27:03.523Z,20.5
2016-09-03T21:32:03.371Z,20.4
2016-09-03T21:37:03.417Z,20.4
2016-09-03T21:42:03.108Z,20.4
2016-09-03T21:47:03.089Z,20.3
2016-09-03T21:52:03.627Z,20.3
2016-09-03T21:57:03.050Z,20.3
2016-09-03T22:02:03.042Z,20.3
2016-09-03T22:07:03.426Z,20.2
2016-09-03T22:12:03.184Z,20.0
2016-09-03T22:22:03.791Z,19.5
2016-09-03T22:27:03.315Z,19.4
2016-09-03T22:32:09.629Z,19.3
2016-09-03T22:37:02.959Z,19.3
2016-09-03T22:42:03.492Z,19.3
2016-09-03T22:47:03.218Z,19.3
2016-09-03T22:52:03.618Z,19.0
2016-09-03T22:57:03.177Z,19.0
2016-09-03T23:02:03.749Z,19.0
2016-09-03T23:07:03.281Z,19.0
2016-09-03T23:12:03.445Z,19.0
2016-09-03T23:17:03.885Z,18.8
2016-09-03T23:22:03.813Z,18.8
2016-09-03T23:27:03.630Z,18.7
2016-09-03T23:32:03.496Z,18.7
2016-09-03T23:37:03.419Z,18.7
2016-09-03T23:42:03.371Z,18.6
2016-09-03T23:47:03.630Z,18.6
2016-09-03T23:52:03.507Z,18.5
2016-09-03T23:57:03.592Z,18.6
